Svend Maersk — OYJS2 — position and weather

sailwx.info

Track history (hours):
 
Tides and Currents Weather Stations Pressure Air Temp Water Temp Dewpoint Dewpoint Depression Visibility Wind Speed Wind Dir Waves Ship Positions

Svend Maersk

Last reported at 2015-May-15 02:29 UTC. Time now 2015-May-22 08:36 UTC.
Position N 29°51' E 122°44'.

Type: Ship (hazmat cat A). MMSI: 219791000.

Date/timePositionNaut miles runAvg speedWind from/ knotsBaromVisibWave heightAir tempDewpointWater temp
2015-May-15 02:29N 29°51' E 122°44'1415.1
2015-May-15 01:33N 29°45' E 122°29'1212.1
2015-May-15 00:33N 29°47' E 122°16'7 7.4
2015-May-14 23:33N 29°49' E 122°07'7 6.5
2015-May-14 22:33N 29°46' E 122°00'0 0.0
2015-May-14 20:15N 29°46' E 122°00'0 0.0
2015-May-14 19:27N 29°46' E 122°00'0 0.0
2015-May-14 18:15N 29°46' E 122°00'0 0.0
2015-May-14 14:33N 29°46' E 122°00'0 0.0
2015-May-14 07:03N 29°46' E 122°00'0 0.0
2015-May-14 03:21N 29°46' E 122°00'0 0.0
2015-May-14 02:03N 29°46' E 122°00'0 0.0
2015-May-13 23:33N 29°46' E 122°00'7 7.5
2015-May-13 22:33N 29°49' E 122°08'9 9.3
2015-May-13 21:33N 29°46' E 122°18'9 9.1
2015-May-13 20:33N 29°44' E 122°28'9 9.5
2015-May-13 19:33N 29°44' E 122°39'1111.5
2015-May-13 18:33N 29°52' E 122°49'1616.4
2015-May-13 17:33N 30°07' E 122°57'1514.7
2015-May-13 16:34N 30°21' E 122°51'1716.6
2015-May-13 15:33N 30°29' E 122°35'1716.4
2015-May-13 14:32N 30°33' E 122°16'1111.7
2015-May-13 13:33N 30°37' E 122°03'0 0.0
2015-May-13 05:25N 30°37' E 122°03'0 0.0
2015-May-13 04:31N 30°37' E 122°03'0 0.0
2015-May-13 03:22N 30°37' E 122°03'0 0.0
2015-May-12 23:19N 30°37' E 122°03'0 0.0
2015-May-12 21:07N 30°37' E 122°03'0 0.0
2015-May-12 20:29N 30°37' E 122°03'0 0.0
2015-May-12 19:25N 30°37' E 122°03'0 0.0
2015-May-12 18:31N 30°37' E 122°03'0 0.0
2015-May-12 17:31N 30°37' E 122°03'0 0.0
2015-May-12 16:25N 30°37' E 122°03'0 0.0
2015-May-12 15:28N 30°37' E 122°03'0 0.0
2015-May-12 14:28N 30°37' E 122°03'0 0.0
2015-May-12 13:31N 30°37' E 122°03'0 0.0
2015-May-12 12:19N 30°37' E 122°03'0 0.0
2015-May-12 11:21N 30°37' E 122°03'1 1.5
2015-May-12 10:33N 30°37' E 122°04'1110.7
2015-May-12 09:32N 30°33' E 122°16'9 9.5
2015-May-12 08:34N 30°32' E 122°27'7 1.0
2015-May-12 01:32N 30°28' E 122°34'7 6.5
2015-May-12 00:26N 30°32' E 122°28'  
2015-May-08 05:29N 34°18' E 128°21'  
Track history (hours):
 
Tides and Currents Weather Stations Pressure Air Temp Water Temp Dewpoint Dewpoint Depression Visibility Wind Speed Wind Dir Waves Ship Positions

Svend Maersk

Last reported at 2015-May-15 02:29 UTC. Time now 2015-May-22 08:36 UTC.
Position N 29°51' E 122°44'.

Type: Ship (hazmat cat A). MMSI: 219791000.

Date/timePositionNaut miles runAvg speedWind from/ knotsBaromVisibWave heightAir tempDewpointWater temp
2015-May-15 02:29N 29°51' E 122°44'1415.1
2015-May-15 01:33N 29°45' E 122°29'1212.1
2015-May-15 00:33N 29°47' E 122°16'7 7.4
2015-May-14 23:33N 29°49' E 122°07'7 6.5
2015-May-14 22:33N 29°46' E 122°00'0 0.0
2015-May-14 20:15N 29°46' E 122°00'0 0.0
2015-May-14 19:27N 29°46' E 122°00'0 0.0
2015-May-14 18:15N 29°46' E 122°00'0 0.0
2015-May-14 14:33N 29°46' E 122°00'0 0.0
2015-May-14 07:03N 29°46' E 122°00'0 0.0
2015-May-14 03:21N 29°46' E 122°00'0 0.0
2015-May-14 02:03N 29°46' E 122°00'0 0.0
2015-May-13 23:33N 29°46' E 122°00'7 7.5
2015-May-13 22:33N 29°49' E 122°08'9 9.3
2015-May-13 21:33N 29°46' E 122°18'9 9.1
2015-May-13 20:33N 29°44' E 122°28'9 9.5
2015-May-13 19:33N 29°44' E 122°39'1111.5
2015-May-13 18:33N 29°52' E 122°49'1616.4
2015-May-13 17:33N 30°07' E 122°57'1514.7
2015-May-13 16:34N 30°21' E 122°51'1716.6
2015-May-13 15:33N 30°29' E 122°35'1716.4
2015-May-13 14:32N 30°33' E 122°16'1111.7
2015-May-13 13:33N 30°37' E 122°03'0 0.0
2015-May-13 05:25N 30°37' E 122°03'0 0.0
2015-May-13 04:31N 30°37' E 122°03'0 0.0
2015-May-13 03:22N 30°37' E 122°03'0 0.0
2015-May-12 23:19N 30°37' E 122°03'0 0.0
2015-May-12 21:07N 30°37' E 122°03'0 0.0
2015-May-12 20:29N 30°37' E 122°03'0 0.0
2015-May-12 19:25N 30°37' E 122°03'0 0.0
2015-May-12 18:31N 30°37' E 122°03'0 0.0
2015-May-12 17:31N 30°37' E 122°03'0 0.0
2015-May-12 16:25N 30°37' E 122°03'0 0.0
2015-May-12 15:28N 30°37' E 122°03'0 0.0
2015-May-12 14:28N 30°37' E 122°03'0 0.0
2015-May-12 13:31N 30°37' E 122°03'0 0.0
2015-May-12 12:19N 30°37' E 122°03'0 0.0
2015-May-12 11:21N 30°37' E 122°03'1 1.5
2015-May-12 10:33N 30°37' E 122°04'1110.7
2015-May-12 09:32N 30°33' E 122°16'9 9.5
2015-May-12 08:34N 30°32' E 122°27'7 1.0
2015-May-12 01:32N 30°28' E 122°34'7 6.5
2015-May-12 00:26N 30°32' E 122°28'  
2015-May-08 05:29N 34°18' E 128°21'  

Dump ship's entire track history